Impacts TAF Board
For situational awareness. Not to be used for flight planning purposes.
IDs:

KAUS - Austin/Bergstrom Int, TX, US

Issued at 0520 UTC 01 Dec 2022
Updated at 0548 UTC 01 Dec 2022
Potential Impact None Slight Moderate High
Time0453Z 01/06Z 01/07Z 01/08Z 01/09Z 01/10Z 01/11Z 01/12Z 01/13Z 01/14Z 01/15Z 01/16Z 01/17Z 01/18Z>>
Type OBS PRVL PRVL PRVL PRVL PRVL PRVL PRVL PRVL PRVL PRVL PRVL PRVL PRVL
VIS 10 >6 >6 >6 >6 >6 >6 >6 >6 >6 >6 >6 >6 >6
CIG -- -- -- -- -- -- -- -- -- -- 50 50 50 50
Cover CLR FEW FEW FEW FEW FEW FEW FEW FEW FEW OVC OVC OVC OVC
FltCat VFR VFR VFR VFR VFR VFR VFR VFR VFR VFR VFR VFR VFR VFR
WX -- -- -- -- -- -- -- -- -- -- -- -- -- --
WDir 10 360 360 360 360 360 360 360 360 360 70 70 70 70
WSpd 5 5 5 5 5 5 5 5 5 5 6 6 6 6
WGst -- -- -- -- -- -- -- -- -- -- -- -- -- --
WSHgt -- -- -- -- -- -- -- -- -- -- -- -- -- --
WSDir -- -- -- -- -- -- -- -- -- -- -- -- -- --
WSSpd -- -- -- -- -- -- -- -- -- -- -- -- -- --
R18/36
XWnd 1 0 0 0 0 0 0 0 0 0 6 6 6 6
HWnd -5 -5 -5 -5 -5 -5 -5 -5 -5 -5 -2 -2 -2 -2
Raw TAF
KAUS 010520Z 0106/0212 36005KT P6SM FEW250
  FM011500 07006KT P6SM OVC050
  FM020000 13005KT P6SM OVC025
  FM020600 13005KT P6SM OVC010
  FM020900 13005KT 2SM BR OVC008


Raw METAR
KAUS 010453Z 01005KT 10SM CLR 04/M02 A3037 RMK AO2 SLP290 T00441022
KAUS 010353Z 02009KT 10SM CLR 07/M02 A3037 RMK AO2 SLP289 T00671022
KAUS 010253Z 35008KT 10SM CLR 05/M02 A3038 RMK AO2 SLP293 T00501017 51016

METAR Board
Radar Display
Forecast Discussion
For situational awareness. Not to be used for flight planning purposes.